createdAt,value
2022-09-22T00:01:19.560Z,11.33
2022-09-22T00:03:49.717Z,11.36
2022-09-22T00:06:19.782Z,11.39
2022-09-22T00:08:49.503Z,11.40
2022-09-22T00:11:19.187Z,11.41
2022-09-22T00:13:50.816Z,11.41
2022-09-22T00:16:21.589Z,11.40
2022-09-22T00:18:49.514Z,11.38
2022-09-22T00:21:21.614Z,11.39
2022-09-22T00:23:49.850Z,11.40
2022-09-22T00:26:21.577Z,11.38
2022-09-22T00:28:51.115Z,11.36
2022-09-22T00:31:22.296Z,11.36
2022-09-22T00:33:51.018Z,11.34
2022-09-22T00:36:19.907Z,11.25
2022-09-22T00:38:50.366Z,11.22
2022-09-22T00:41:20.930Z,11.20
2022-09-22T00:43:50.317Z,11.14
2022-09-22T00:46:23.333Z,11.17
2022-09-22T00:48:55.940Z,11.17
2022-09-22T00:51:29.137Z,11.21
2022-09-22T00:53:58.432Z,11.23
2022-09-22T00:56:29.418Z,11.23
2022-09-22T00:59:02.692Z,11.23
2022-09-22T01:01:33.671Z,11.21
2022-09-22T01:04:01.405Z,11.15
2022-09-22T01:06:29.560Z,11.15
2022-09-22T01:08:57.732Z,11.14
2022-09-22T01:11:27.864Z,11.15
2022-09-22T01:14:04.829Z,11.14
2022-09-22T01:16:50.437Z,11.10
2022-09-22T01:19:41.602Z,11.08
2022-09-22T01:22:25.718Z,11.08
2022-09-22T01:25:09.929Z,11.06
2022-09-22T01:28:15.177Z,11.04
2022-09-22T01:30:48.771Z,10.94
2022-09-22T01:33:33.322Z,10.80
2022-09-22T01:36:15.231Z,10.77
2022-09-22T01:38:50.610Z,10.75
2022-09-22T01:41:24.461Z,10.66
2022-09-22T01:43:57.451Z,10.60
2022-09-22T01:46:30.976Z,10.54
2022-09-22T01:49:03.431Z,10.53
2022-09-22T01:51:35.914Z,10.57
2022-09-22T01:54:08.626Z,10.59
2022-09-22T01:56:38.061Z,10.60
2022-09-22T01:59:08.227Z,10.58
2022-09-22T02:01:40.205Z,10.55
2022-09-22T02:04:12.275Z,10.60
2022-09-22T02:06:47.388Z,10.67
2022-09-22T02:09:19.388Z,10.73
2022-09-22T02:11:48.447Z,10.75
2022-09-22T02:14:16.875Z,10.76
2022-09-22T02:16:45.984Z,10.77
2022-09-22T02:19:19.137Z,10.75
2022-09-22T02:21:48.870Z,10.73
2022-09-22T02:24:30.851Z,10.72
2022-09-22T02:26:59.716Z,10.68
2022-09-22T02:29:30.340Z,10.65
2022-09-22T02:32:01.958Z,10.64
2022-09-22T02:34:29.759Z,10.49
2022-09-22T02:37:05.870Z,10.42
2022-09-22T02:39:41.739Z,10.39
2022-09-22T02:42:21.445Z,10.33
2022-09-22T02:44:54.914Z,10.40
2022-09-22T02:47:29.759Z,10.44
2022-09-22T02:49:58.891Z,10.47
2022-09-22T02:52:26.658Z,10.45
2022-09-22T02:54:55.352Z,10.38
2022-09-22T02:57:23.308Z,10.32
2022-09-22T02:59:50.901Z,10.24
2022-09-22T03:02:18.671Z,10.21
2022-09-22T03:04:47.605Z,10.09
2022-09-22T03:07:15.278Z,10.07
2022-09-22T03:09:42.862Z,10.01
2022-09-22T03:12:10.572Z,10.02
2022-09-22T03:14:38.137Z,9.97
2022-09-22T03:17:05.921Z,9.95
2022-09-22T03:19:33.663Z,9.86
2022-09-22T03:22:02.608Z,9.84
2022-09-22T03:24:30.186Z,9.84
2022-09-22T03:26:57.742Z,9.79
2022-09-22T03:29:25.501Z,9.75
2022-09-22T03:31:53.070Z,9.80
2022-09-22T03:34:20.665Z,9.83
2022-09-22T03:36:48.308Z,9.81
2022-09-22T03:39:17.258Z,9.77
2022-09-22T03:41:44.993Z,9.69
2022-09-22T03:44:12.574Z,9.75
2022-09-22T03:46:40.287Z,9.74
2022-09-22T03:49:08.798Z,9.78
2022-09-22T03:51:36.541Z,9.77
2022-09-22T03:54:04.386Z,9.84
2022-09-22T03:56:33.327Z,9.88
2022-09-22T03:59:00.979Z,9.90
2022-09-22T04:01:28.654Z,9.91
2022-09-22T04:03:56.403Z,9.94
2022-09-22T04:06:24.009Z,9.91
2022-09-22T04:08:51.650Z,9.88
2022-09-22T04:11:19.405Z,9.91
2022-09-22T04:13:48.325Z,9.89
2022-09-22T04:16:16.014Z,9.89
2022-09-22T04:18:44.760Z,9.88
2022-09-22T04:21:12.510Z,9.85
2022-09-22T04:23:40.225Z,9.83
2022-09-22T04:26:07.818Z,9.83
2022-09-22T04:28:35.895Z,9.91
2022-09-22T04:31:05.528Z,9.96
2022-09-22T04:33:33.257Z,9.98
2022-09-22T04:36:00.785Z,9.99
2022-09-22T04:38:28.446Z,10.04
2022-09-22T04:40:57.077Z,10.03
2022-09-22T04:43:24.737Z,9.99
2022-09-22T04:45:52.317Z,9.79
2022-09-22T04:48:21.363Z,9.78
2022-09-22T04:50:48.960Z,9.66
2022-09-22T04:53:16.920Z,9.66
2022-09-22T04:55:44.957Z,9.59
2022-09-22T04:58:13.871Z,9.55
2022-09-22T05:00:41.715Z,9.58
2022-09-22T05:03:10.015Z,9.66
2022-09-22T05:05:39.490Z,9.64
2022-09-22T05:08:07.727Z,9.67
2022-09-22T05:10:36.633Z,9.69
2022-09-22T05:13:05.649Z,9.65
2022-09-22T05:15:34.728Z,9.67
2022-09-22T05:18:02.696Z,9.59
2022-09-22T05:20:30.428Z,9.54
2022-09-22T05:22:59.405Z,9.55
2022-09-22T05:25:27.939Z,9.52
2022-09-22T05:27:56.815Z,9.54
2022-09-22T05:30:26.254Z,9.57
2022-09-22T05:32:54.118Z,9.60
2022-09-22T05:35:24.387Z,9.61
2022-09-22T05:37:53.306Z,9.61
2022-09-22T05:40:24.032Z,9.57
2022-09-22T05:42:53.742Z,9.61
2022-09-22T05:45:22.468Z,9.63
2022-09-22T05:47:50.284Z,9.59
2022-09-22T05:50:23.598Z,9.58
2022-09-22T05:52:51.390Z,9.59
2022-09-22T05:55:19.299Z,9.63
2022-09-22T05:57:48.227Z,9.69
2022-09-22T06:00:16.192Z,9.73
2022-09-22T06:02:44.544Z,9.77
2022-09-22T06:05:13.895Z,9.80
2022-09-22T06:07:42.713Z,9.84
2022-09-22T06:10:11.534Z,9.89
2022-09-22T06:12:39.398Z,9.95
2022-09-22T06:15:08.916Z,10.01
2022-09-22T06:17:36.578Z,10.09
2022-09-22T06:20:04.985Z,10.12
2022-09-22T06:22:34.256Z,10.15
2022-09-22T06:25:02.687Z,10.22
2022-09-22T06:27:30.330Z,10.28
2022-09-22T06:29:58.880Z,10.30
2022-09-22T06:32:27.890Z,10.32
2022-09-22T06:34:56.057Z,10.36
2022-09-22T06:37:23.733Z,10.41
2022-09-22T06:39:51.394Z,10.44
2022-09-22T06:42:18.999Z,10.39
2022-09-22T06:44:48.009Z,10.38
2022-09-22T06:47:15.646Z,10.42
2022-09-22T06:49:45.038Z,10.45
2022-09-22T06:52:13.754Z,10.55
2022-09-22T06:54:42.031Z,10.66
2022-09-22T06:57:13.097Z,10.67
2022-09-22T06:59:41.297Z,10.80
2022-09-22T07:02:10.624Z,10.88
2022-09-22T07:04:38.312Z,10.99
2022-09-22T07:07:08.771Z,11.10
2022-09-22T07:09:36.359Z,11.20
2022-09-22T07:12:03.995Z,11.29
2022-09-22T07:14:32.582Z,11.40
2022-09-22T07:17:00.750Z,11.50
2022-09-22T07:19:28.283Z,11.61
2022-09-22T07:21:55.866Z,11.71
2022-09-22T07:24:27.774Z,11.80
2022-09-22T07:26:55.420Z,11.87
2022-09-22T07:29:23.125Z,11.96
2022-09-22T07:31:51.700Z,12.02
2022-09-22T07:34:19.472Z,12.02
2022-09-22T07:36:48.901Z,12.11
2022-09-22T07:39:16.482Z,12.18
2022-09-22T07:41:46.666Z,12.21
2022-09-22T07:44:33.501Z,12.31
2022-09-22T07:47:02.098Z,12.42
2022-09-22T07:49:30.050Z,12.49
2022-09-22T07:51:58.303Z,12.58
2022-09-22T07:54:27.428Z,12.63
2022-09-22T07:56:58.243Z,12.73
2022-09-22T07:59:26.849Z,12.78
2022-09-22T08:01:55.626Z,12.86
2022-09-22T08:04:23.774Z,12.93
2022-09-22T08:06:57.666Z,12.99
2022-09-22T08:09:26.289Z,13.06
2022-09-22T08:11:54.974Z,13.19
2022-09-22T08:14:24.461Z,13.30
2022-09-22T08:16:53.210Z,13.39
2022-09-22T08:19:23.697Z,13.44
2022-09-22T08:21:53.968Z,13.50
2022-09-22T08:24:22.747Z,13.55
2022-09-22T08:26:52.379Z,13.51
2022-09-22T08:29:20.515Z,13.57
2022-09-22T08:31:51.589Z,13.66
2022-09-22T08:34:20.036Z,13.71
2022-09-22T08:36:48.318Z,13.83
2022-09-22T08:39:17.618Z,13.89
2022-09-22T08:41:59.267Z,13.92
2022-09-22T08:44:32.836Z,14.00
2022-09-22T08:47:02.560Z,14.01
2022-09-22T08:49:55.968Z,14.10
2022-09-22T08:52:29.072Z,14.12
2022-09-22T08:54:59.367Z,14.23
2022-09-22T08:57:56.924Z,14.22
2022-09-22T09:00:25.585Z,14.32
2022-09-22T09:03:08.258Z,14.37
2022-09-22T09:06:04.323Z,14.42
2022-09-22T09:09:12.652Z,14.46
2022-09-22T09:11:59.496Z,14.54
2022-09-22T09:15:02.411Z,14.62
2022-09-22T09:17:31.520Z,14.63
2022-09-22T09:20:04.058Z,14.68
2022-09-22T09:22:42.704Z,14.70
2022-09-22T09:25:24.570Z,14.76
2022-09-22T09:27:57.085Z,14.84
2022-09-22T09:30:24.875Z,14.85
2022-09-22T09:32:54.371Z,14.92
2022-09-22T09:35:26.455Z,14.97
2022-09-22T09:37:58.924Z,14.98
2022-09-22T09:40:27.494Z,14.99
2022-09-22T09:43:01.655Z,15.02
2022-09-22T09:45:44.296Z,15.05
2022-09-22T09:48:22.755Z,15.03
2022-09-22T09:50:51.868Z,15.06
2022-09-22T09:53:32.042Z,15.06
2022-09-22T09:55:59.766Z,15.11
2022-09-22T09:58:44.849Z,15.14
2022-09-22T10:01:15.075Z,15.15
2022-09-22T10:03:46.830Z,15.20
2022-09-22T10:06:23.994Z,15.22
2022-09-22T10:08:53.008Z,15.21
2022-09-22T10:11:30.200Z,15.24
2022-09-22T10:13:58.822Z,15.25
2022-09-22T10:16:26.961Z,15.29
2022-09-22T10:19:05.668Z,15.31
2022-09-22T10:21:37.552Z,15.32
2022-09-22T10:24:23.421Z,15.18
2022-09-22T10:26:55.811Z,15.20
2022-09-22T10:29:23.357Z,15.29
2022-09-22T10:32:07.446Z,15.40
2022-09-22T10:34:37.147Z,15.43
2022-09-22T10:37:10.390Z,15.39
2022-09-22T10:39:45.049Z,15.49
2022-09-22T10:42:23.136Z,15.57
2022-09-22T10:44:54.715Z,15.47
2022-09-22T10:47:31.443Z,15.34
2022-09-22T10:50:22.692Z,15.37
2022-09-22T10:52:57.130Z,15.41
2022-09-22T10:55:30.508Z,15.35
2022-09-22T10:58:22.942Z,15.33
2022-09-22T11:00:56.300Z,15.36
2022-09-22T11:03:49.862Z,15.32
2022-09-22T11:06:46.814Z,15.27
2022-09-22T11:12:21.249Z,15.26
2022-09-22T11:15:03.450Z,15.35
2022-09-22T11:17:53.348Z,15.41
2022-09-22T11:20:36.868Z,15.37
2022-09-22T11:23:33.055Z,15.40
2022-09-22T11:26:41.601Z,15.43
2022-09-22T11:29:31.400Z,15.60
2022-09-22T11:32:09.659Z,15.75
2022-09-22T11:34:52.354Z,15.91
2022-09-22T11:37:33.729Z,15.94
2022-09-22T11:40:19.921Z,16.12
2022-09-22T11:43:00.612Z,16.29
2022-09-22T11:45:44.540Z,16.41
2022-09-22T11:48:23.797Z,16.65
2022-09-22T11:51:10.443Z,16.74
2022-09-22T11:54:00.603Z,16.99
2022-09-22T11:56:41.388Z,16.99
2022-09-22T11:59:24.920Z,17.14
2022-09-22T12:01:55.121Z,17.37
2022-09-22T12:04:30.640Z,17.55
2022-09-22T12:07:01.748Z,17.67
2022-09-22T12:09:38.622Z,17.87
2022-09-22T12:12:09.962Z,17.92
2022-09-22T12:14:39.211Z,18.08
2022-09-22T12:17:16.790Z,18.15
2022-09-22T12:19:57.030Z,18.10
2022-09-22T12:22:33.558Z,18.22
2022-09-22T12:25:01.376Z,18.21
2022-09-22T12:27:30.848Z,18.29
2022-09-22T12:30:02.753Z,18.34
2022-09-22T12:32:36.331Z,18.62
2022-09-22T12:35:05.506Z,18.70
2022-09-22T12:37:36.226Z,18.84
2022-09-22T12:40:22.551Z,19.09
2022-09-22T12:42:52.675Z,18.94
2022-09-22T12:45:29.782Z,18.93
2022-09-22T12:48:00.381Z,18.69
2022-09-22T12:50:35.279Z,18.46
2022-09-22T12:53:11.377Z,18.38
2022-09-22T12:55:39.413Z,18.31
2022-09-22T12:58:42.348Z,18.34
2022-09-22T13:01:44.585Z,18.54
2022-09-22T13:04:15.323Z,18.78
2022-09-22T13:07:00.538Z,19.10
2022-09-22T13:09:30.894Z,19.28
2022-09-22T13:12:25.321Z,19.52
2022-09-22T13:15:17.298Z,19.63
2022-09-22T13:17:47.625Z,19.74
2022-09-22T13:20:25.000Z,19.89
2022-09-22T13:22:55.240Z,20.03
2022-09-22T13:25:25.733Z,19.94
2022-09-22T13:28:11.014Z,20.11
2022-09-22T13:30:39.437Z,19.98
2022-09-22T13:33:19.120Z,19.61
2022-09-22T13:35:47.005Z,19.74
2022-09-22T13:38:16.060Z,19.89
2022-09-22T13:40:48.918Z,20.08
2022-09-22T13:43:25.817Z,20.25
2022-09-22T13:45:53.942Z,20.20
2022-09-22T13:48:23.318Z,20.12
2022-09-22T13:50:54.774Z,20.01
2022-09-22T13:53:23.253Z,19.79
2022-09-22T13:55:52.587Z,19.81
2022-09-22T13:58:28.160Z,19.84
2022-09-22T14:01:12.968Z,19.50
2022-09-22T14:03:43.577Z,19.20
2022-09-22T14:06:14.914Z,19.06
2022-09-22T14:08:44.629Z,18.93
2022-09-22T14:11:15.358Z,18.69
2022-09-22T14:13:45.006Z,18.54
2022-09-22T14:16:23.224Z,18.39
2022-09-22T14:18:59.197Z,18.29
2022-09-22T14:21:27.011Z,18.12
2022-09-22T14:23:56.113Z,17.99
2022-09-22T14:26:33.410Z,17.96
2022-09-22T14:29:14.658Z,17.87
2022-09-22T14:31:46.526Z,17.86
2022-09-22T14:34:21.616Z,17.86
2022-09-22T14:36:51.955Z,17.85
2022-09-22T14:39:24.792Z,17.80
2022-09-22T14:41:58.902Z,17.74
2022-09-22T14:44:39.057Z,17.71
2022-09-22T14:47:18.898Z,17.63
2022-09-22T14:49:48.728Z,17.55
2022-09-22T14:52:26.710Z,17.53
2022-09-22T14:54:55.804Z,17.47
2022-09-22T14:57:24.015Z,17.48
2022-09-22T15:00:12.666Z,17.49
2022-09-22T15:02:44.426Z,17.39
2022-09-22T15:05:29.330Z,17.33
2022-09-22T15:07:59.257Z,17.35
2022-09-22T15:10:28.968Z,17.35
2022-09-22T15:13:18.266Z,17.29
2022-09-22T15:15:48.576Z,17.30
2022-09-22T15:18:19.093Z,17.29
2022-09-22T15:20:50.646Z,17.25
2022-09-22T15:23:22.856Z,17.23
2022-09-22T15:25:52.114Z,17.22
2022-09-22T15:28:23.586Z,17.21
2022-09-22T15:30:52.408Z,17.21
2022-09-22T15:33:21.969Z,17.19
2022-09-22T15:35:54.294Z,17.15
2022-09-22T15:38:24.137Z,17.14
2022-09-22T15:40:52.334Z,17.10
2022-09-22T15:43:23.068Z,17.08
2022-09-22T15:45:54.641Z,17.06
2022-09-22T15:48:27.013Z,17.06
2022-09-22T15:50:56.921Z,17.03
2022-09-22T15:53:25.035Z,17.01
2022-09-22T15:55:54.132Z,16.98
2022-09-22T15:58:23.921Z,16.96
2022-09-22T16:00:53.167Z,16.95
2022-09-22T16:03:23.978Z,16.96
2022-09-22T16:05:56.927Z,16.97
2022-09-22T16:08:29.685Z,17.00
2022-09-22T16:10:57.538Z,17.01
2022-09-22T16:13:26.837Z,17.03
2022-09-22T16:15:54.769Z,17.05
2022-09-22T16:18:23.192Z,17.04
2022-09-22T16:20:51.639Z,17.01
2022-09-22T16:23:19.775Z,16.98
2022-09-22T16:25:53.788Z,16.96
2022-09-22T16:28:21.412Z,16.96
2022-09-22T16:30:48.968Z,16.90
2022-09-22T16:33:16.670Z,16.84
2022-09-22T16:35:44.602Z,16.83
2022-09-22T16:38:12.229Z,16.80
2022-09-22T16:40:42.195Z,16.79
2022-09-22T16:43:11.138Z,16.73
2022-09-22T16:45:56.402Z,16.68
2022-09-22T16:48:26.608Z,16.65
2022-09-22T16:50:54.934Z,16.62
2022-09-22T16:53:22.946Z,16.63
2022-09-22T16:55:50.722Z,16.55
2022-09-22T16:58:19.863Z,16.53
2022-09-22T17:00:47.480Z,16.47
2022-09-22T17:03:15.056Z,16.46
2022-09-22T17:05:42.591Z,16.45
2022-09-22T17:08:11.605Z,16.36
2022-09-22T17:10:39.165Z,16.30
2022-09-22T17:13:08.355Z,16.23
2022-09-22T17:15:37.362Z,16.18
2022-09-22T17:18:05.219Z,16.11
2022-09-22T17:20:33.121Z,16.03
2022-09-22T17:23:00.802Z,16.05
2022-09-22T17:25:29.004Z,16.01
2022-09-22T17:31:17.690Z,16.01
2022-09-22T17:33:51.410Z,15.96
2022-09-22T17:36:22.512Z,15.95
2022-09-22T17:38:52.013Z,15.90
2022-09-22T17:41:21.369Z,15.93
2022-09-22T17:43:51.906Z,15.91
2022-09-22T17:46:21.495Z,15.89
2022-09-22T17:49:06.638Z,15.84
2022-09-22T17:51:52.642Z,15.80
2022-09-22T17:54:41.120Z,15.69
2022-09-22T17:57:10.415Z,15.69
2022-09-22T17:59:39.235Z,15.68
2022-09-22T18:02:10.962Z,15.68
2022-09-22T18:04:38.943Z,15.72
2022-09-22T18:07:08.086Z,15.67
2022-09-22T18:09:36.330Z,15.59
2022-09-22T18:12:05.206Z,15.59
2022-09-22T18:14:34.184Z,15.59
2022-09-22T18:17:05.058Z,15.52
2022-09-22T18:19:36.699Z,15.43
2022-09-22T18:22:06.072Z,15.39
2022-09-22T18:24:34.284Z,15.36
2022-09-22T18:27:04.682Z,15.32
2022-09-22T18:29:32.949Z,15.30
2022-09-22T18:32:00.808Z,15.28
2022-09-22T18:34:31.623Z,15.24
2022-09-22T18:37:01.732Z,15.20
2022-09-22T18:39:30.470Z,15.16
2022-09-22T18:41:59.806Z,15.11
2022-09-22T18:44:28.958Z,15.11
2022-09-22T18:47:00.675Z,15.07
2022-09-22T18:49:31.790Z,15.05
2022-09-22T18:52:02.495Z,15.01
2022-09-22T18:54:30.883Z,15.01
2022-09-22T18:56:58.498Z,15.00
2022-09-22T18:59:27.750Z,14.94
2022-09-22T19:01:55.661Z,14.86
2022-09-22T19:04:26.476Z,14.93
2022-09-22T19:07:13.297Z,15.05
2022-09-22T19:09:44.285Z,15.03
2022-09-22T19:12:12.766Z,14.95
2022-09-22T19:14:41.698Z,14.85
2022-09-22T19:17:11.141Z,14.76
2022-09-22T19:19:42.308Z,14.72
2022-09-22T19:22:18.734Z,14.71
2022-09-22T19:24:47.709Z,14.61
2022-09-22T19:27:18.450Z,14.59
2022-09-22T19:29:46.178Z,14.60
2022-09-22T19:32:13.831Z,14.60
2022-09-22T19:34:42.664Z,14.56
2022-09-22T19:37:10.236Z,14.50
2022-09-22T19:39:38.054Z,14.45
2022-09-22T19:42:07.059Z,14.42
2022-09-22T19:44:34.899Z,14.36
2022-09-22T19:47:02.450Z,14.32
2022-09-22T19:49:29.986Z,14.31
2022-09-22T19:51:57.585Z,14.27
2022-09-22T19:54:25.206Z,14.26
2022-09-22T19:56:52.785Z,14.20
2022-09-22T19:59:21.676Z,14.24
2022-09-22T20:01:49.267Z,14.15
2022-09-22T20:04:18.853Z,14.11
2022-09-22T20:06:47.660Z,14.06
2022-09-22T20:09:15.881Z,14.01
2022-09-22T20:11:45.780Z,14.04
2022-09-22T20:14:25.263Z,14.00
2022-09-22T20:16:55.905Z,13.96
2022-09-22T20:19:26.636Z,13.94
2022-09-22T20:22:15.030Z,13.93
2022-09-22T20:24:43.025Z,13.92
2022-09-22T20:27:10.674Z,13.92
2022-09-22T20:29:38.257Z,13.93
2022-09-22T20:32:08.275Z,13.87
2022-09-22T20:34:36.088Z,13.87
2022-09-22T20:37:04.003Z,13.95
2022-09-22T20:39:32.554Z,14.04
2022-09-22T20:42:00.126Z,14.11
2022-09-22T20:44:27.669Z,14.11
2022-09-22T20:46:55.930Z,14.12
2022-09-22T20:49:24.908Z,14.12
2022-09-22T20:51:54.966Z,14.04
2022-09-22T20:54:24.305Z,14.03
2022-09-22T20:56:53.231Z,14.03
2022-09-22T20:59:21.530Z,13.99
2022-09-22T21:01:49.277Z,13.96
2022-09-22T21:04:16.924Z,13.94
2022-09-22T21:06:46.089Z,13.86
2022-09-22T21:09:31.121Z,13.79
2022-09-22T21:11:58.758Z,13.76
2022-09-22T21:14:26.337Z,13.73
2022-09-22T21:16:53.922Z,13.68
2022-09-22T21:19:21.542Z,13.63
2022-09-22T21:21:50.452Z,13.59
2022-09-22T21:24:18.161Z,13.56
2022-09-22T21:26:46.091Z,13.53
2022-09-22T21:29:13.867Z,13.47
2022-09-22T21:31:41.452Z,13.42
2022-09-22T21:34:09.487Z,13.31
2022-09-22T21:36:37.066Z,13.30
2022-09-22T21:39:08.554Z,13.29
2022-09-22T21:41:36.709Z,13.26
2022-09-22T21:44:05.065Z,13.17
2022-09-22T21:46:37.375Z,13.09
2022-09-22T21:49:06.670Z,13.08
2022-09-22T21:51:36.208Z,12.98
2022-09-22T21:54:05.722Z,12.94
2022-09-22T21:56:35.530Z,12.92
2022-09-22T21:59:03.482Z,12.95
2022-09-22T22:01:33.411Z,12.94
2022-09-22T22:04:02.402Z,12.88
2022-09-22T22:06:32.429Z,12.89
2022-09-22T22:09:04.101Z,12.97
2022-09-22T22:11:35.154Z,12.93
2022-09-22T22:14:04.795Z,12.97
2022-09-22T22:16:34.101Z,12.83
2022-09-22T22:19:02.075Z,12.77
2022-09-22T22:21:30.625Z,12.78
2022-09-22T22:24:20.846Z,12.75
2022-09-22T22:26:51.704Z,12.66
2022-09-22T22:29:20.879Z,12.61
2022-09-22T22:31:48.957Z,12.67
2022-09-22T22:34:19.050Z,12.66
2022-09-22T22:36:46.898Z,12.72
2022-09-22T22:39:14.760Z,12.77
2022-09-22T22:41:42.570Z,12.81
2022-09-22T22:44:12.807Z,12.73
2022-09-22T22:46:40.484Z,12.76
2022-09-22T22:49:08.244Z,12.78
2022-09-22T22:51:36.411Z,12.79
2022-09-22T22:54:05.488Z,12.81
2022-09-22T22:56:33.985Z,12.79
2022-09-22T22:59:01.667Z,12.82
2022-09-22T23:01:31.993Z,12.77
2022-09-22T23:04:01.355Z,12.70
2022-09-22T23:06:30.600Z,12.72
2022-09-22T23:08:58.999Z,12.75
2022-09-22T23:11:28.338Z,12.79
2022-09-22T23:13:59.430Z,12.82
2022-09-22T23:16:28.266Z,12.73
2022-09-22T23:18:59.128Z,12.64
2022-09-22T23:21:27.291Z,12.64
2022-09-22T23:23:55.595Z,12.61
2022-09-22T23:26:23.885Z,12.60
2022-09-22T23:28:52.450Z,12.62
2022-09-22T23:31:22.049Z,12.59
2022-09-22T23:33:51.440Z,12.53
2022-09-22T23:36:22.418Z,12.57
2022-09-22T23:38:54.049Z,12.57
2022-09-22T23:41:22.276Z,12.52
2022-09-22T23:43:49.856Z,12.43
2022-09-22T23:46:17.794Z,12.42
2022-09-22T23:48:47.420Z,12.42
2022-09-22T23:51:15.671Z,12.43
2022-09-22T23:53:44.609Z,12.37
2022-09-22T23:56:12.186Z,12.33
2022-09-22T23:58:39.780Z,12.25
